Lake Elizabeth, California
Current Conditions -  °F | °C
As of 6:34 AM on Sunday 23 Nov 2014 (Local Time) from KSDB Reporting Station
Moderate Fog Moderate Fog  
Wind Chill: 34°   Ceiling: 100
Heat Index: 44°   Visibility: 0.25mi
Dew Point: 40°   Wind: 32mph
Humidity: 85%   Direction: 340°NNW
Pressure: 30.21"   Gusts: 44mph
Location:  34.6849°N, 118.558°W
Report Text: KSDB 231434Z AUTO 34028G38KT 1/4SM FG VV001 07/04 A3021 RMK AO2 PK WND 34038/1432 RAB1359E08 P0000 T00670044 $
Loading
Personal Weather Stations






























Interactive Weather Map New forecast layout! Learn more

10-Day Weather Forecast

Advertisements
Track Severe Weather on mobile